sensor_id;sensor_type;location;lat;lon;timestamp;P1;durP1;ratioP1;P2;durP2;ratioP2
75156;SDS011;63736;50.076;8.198;2022-12-18T00:01:18;90.22;;;47.25;;
75156;SDS011;63736;50.076;8.198;2022-12-18T00:03:51;108.70;;;52.93;;
75156;SDS011;63736;50.076;8.198;2022-12-18T00:06:21;101.38;;;50.40;;
75156;SDS011;63736;50.076;8.198;2022-12-18T00:08:47;106.95;;;53.47;;
75156;SDS011;63736;50.076;8.198;2022-12-18T00:11:14;129.40;;;60.30;;
75156;SDS011;63736;50.076;8.198;2022-12-18T00:13:42;134.37;;;61.50;;
75156;SDS011;63736;50.076;8.198;2022-12-18T00:16:15;117.60;;;58.30;;
75156;SDS011;63736;50.076;8.198;2022-12-18T00:18:44;103.28;;;51.63;;
75156;SDS011;63736;50.076;8.198;2022-12-18T00:21:11;87.27;;;46.37;;
75156;SDS011;63736;50.076;8.198;2022-12-18T00:23:37;70.30;;;41.03;;
75156;SDS011;63736;50.076;8.198;2022-12-18T00:26:05;70.43;;;39.17;;
75156;SDS011;63736;50.076;8.198;2022-12-18T00:28:32;61.70;;;37.40;;
75156;SDS011;63736;50.076;8.198;2022-12-18T00:45:02;73.70;;;41.90;;
75156;SDS011;63736;50.076;8.198;2022-12-18T00:47:27;65.20;;;37.95;;
75156;SDS011;63736;50.076;8.198;2022-12-18T00:49:55;70.88;;;39.95;;
75156;SDS011;63736;50.076;8.198;2022-12-18T00:52:21;103.97;;;52.43;;
75156;SDS011;63736;50.076;8.198;2022-12-18T00:54:48;107.50;;;54.67;;
75156;SDS011;63736;50.076;8.198;2022-12-18T00:57:14;119.05;;;59.63;;
75156;SDS011;63736;50.076;8.198;2022-12-18T00:59:44;88.50;;;46.77;;
75156;SDS011;63736;50.076;8.198;2022-12-18T01:02:10;96.47;;;51.20;;
75156;SDS011;63736;50.076;8.198;2022-12-18T01:04:38;103.28;;;53.38;;
75156;SDS011;63736;50.076;8.198;2022-12-18T01:07:06;119.77;;;57.13;;
75156;SDS011;63736;50.076;8.198;2022-12-18T01:09:31;123.20;;;60.60;;
75156;SDS011;63736;50.076;8.198;2022-12-18T01:11:56;108.18;;;54.20;;
75156;SDS011;63736;50.076;8.198;2022-12-18T01:14:22;107.23;;;51.67;;
75156;SDS011;63736;50.076;8.198;2022-12-18T01:16:50;106.30;;;54.92;;
75156;SDS011;63736;50.076;8.198;2022-12-18T01:19:15;101.33;;;51.80;;
75156;SDS011;63736;50.076;8.198;2022-12-18T01:21:41;98.53;;;50.00;;
75156;SDS011;63736;50.076;8.198;2022-12-18T01:24:06;94.03;;;49.67;;
75156;SDS011;63736;50.076;8.198;2022-12-18T01:26:32;110.03;;;54.37;;
75156;SDS011;63736;50.076;8.198;2022-12-18T01:28:57;125.43;;;61.72;;
75156;SDS011;63736;50.076;8.198;2022-12-18T01:31:27;148.30;;;75.20;;
75156;SDS011;63736;50.076;8.198;2022-12-18T01:33:54;146.38;;;74.88;;
75156;SDS011;63736;50.076;8.198;2022-12-18T01:36:44;166.70;;;84.88;;
75156;SDS011;63736;50.076;8.198;2022-12-18T01:39:12;157.15;;;80.40;;
75156;SDS011;63736;50.076;8.198;2022-12-18T01:41:38;137.33;;;71.53;;
75156;SDS011;63736;50.076;8.198;2022-12-18T01:47:22;159.23;;;81.57;;
75156;SDS011;63736;50.076;8.198;2022-12-18T01:49:55;150.65;;;78.13;;
75156;SDS011;63736;50.076;8.198;2022-12-18T01:52:22;143.57;;;72.28;;
75156;SDS011;63736;50.076;8.198;2022-12-18T01:54:50;156.60;;;78.90;;
75156;SDS011;63736;50.076;8.198;2022-12-18T01:57:16;146.00;;;74.22;;
75156;SDS011;63736;50.076;8.198;2022-12-18T01:59:45;129.23;;;66.50;;
75156;SDS011;63736;50.076;8.198;2022-12-18T02:02:16;125.05;;;63.17;;
75156;SDS011;63736;50.076;8.198;2022-12-18T02:04:41;115.80;;;59.65;;
75156;SDS011;63736;50.076;8.198;2022-12-18T02:07:10;139.03;;;69.77;;
75156;SDS011;63736;50.076;8.198;2022-12-18T02:09:50;151.05;;;78.53;;
75156;SDS011;63736;50.076;8.198;2022-12-18T02:12:23;146.23;;;75.97;;
75156;SDS011;63736;50.076;8.198;2022-12-18T02:20:16;116.70;;;59.53;;
75156;SDS011;63736;50.076;8.198;2022-12-18T02:26:23;107.53;;;55.77;;
75156;SDS011;63736;50.076;8.198;2022-12-18T02:28:26;108.00;;;54.75;;
75156;SDS011;63736;50.076;8.198;2022-12-18T02:30:56;92.68;;;48.95;;
75156;SDS011;63736;50.076;8.198;2022-12-18T02:33:26;98.43;;;51.88;;
75156;SDS011;63736;50.076;8.198;2022-12-18T02:35:54;95.43;;;50.78;;
75156;SDS011;63736;50.076;8.198;2022-12-18T02:38:24;91.13;;;49.17;;
75156;SDS011;63736;50.076;8.198;2022-12-18T02:40:50;88.22;;;48.50;;
75156;SDS011;63736;50.076;8.198;2022-12-18T02:43:20;94.15;;;49.40;;
75156;SDS011;63736;50.076;8.198;2022-12-18T02:45:53;89.57;;;48.07;;
75156;SDS011;63736;50.076;8.198;2022-12-18T02:48:24;87.38;;;45.35;;
75156;SDS011;63736;50.076;8.198;2022-12-18T02:53:36;66.22;;;39.60;;
75156;SDS011;63736;50.076;8.198;2022-12-18T02:58:46;61.40;;;38.00;;
75156;SDS011;63736;50.076;8.198;2022-12-18T03:03:47;78.93;;;44.57;;
75156;SDS011;63736;50.076;8.198;2022-12-18T03:06:19;77.22;;;43.13;;
75156;SDS011;63736;50.076;8.198;2022-12-18T03:08:54;87.28;;;46.28;;
75156;SDS011;63736;50.076;8.198;2022-12-18T03:11:23;65.07;;;39.88;;
75156;SDS011;63736;50.076;8.198;2022-12-18T03:14:10;65.20;;;40.13;;
75156;SDS011;63736;50.076;8.198;2022-12-18T03:16:40;67.20;;;39.67;;
75156;SDS011;63736;50.076;8.198;2022-12-18T03:19:08;56.33;;;36.17;;
75156;SDS011;63736;50.076;8.198;2022-12-18T03:21:41;63.95;;;38.33;;
75156;SDS011;63736;50.076;8.198;2022-12-18T03:24:09;65.53;;;40.38;;
75156;SDS011;63736;50.076;8.198;2022-12-18T03:26:36;71.43;;;41.90;;
75156;SDS011;63736;50.076;8.198;2022-12-18T03:29:12;57.17;;;36.27;;
75156;SDS011;63736;50.076;8.198;2022-12-18T03:31:46;69.13;;;39.95;;
75156;SDS011;63736;50.076;8.198;2022-12-18T03:34:17;73.68;;;41.38;;
75156;SDS011;63736;50.076;8.198;2022-12-18T03:36:48;72.07;;;41.78;;
75156;SDS011;63736;50.076;8.198;2022-12-18T03:39:13;71.63;;;41.03;;
75156;SDS011;63736;50.076;8.198;2022-12-18T03:44:47;75.87;;;44.07;;
75156;SDS011;63736;50.076;8.198;2022-12-18T03:47:33;80.47;;;43.92;;
75156;SDS011;63736;50.076;8.198;2022-12-18T03:50:11;75.43;;;42.72;;
75156;SDS011;63736;50.076;8.198;2022-12-18T03:55:19;76.95;;;43.38;;
75156;SDS011;63736;50.076;8.198;2022-12-18T03:57:47;71.40;;;41.23;;
75156;SDS011;63736;50.076;8.198;2022-12-18T04:00:15;76.57;;;42.20;;
75156;SDS011;63736;50.076;8.198;2022-12-18T04:02:43;84.75;;;46.35;;
75156;SDS011;63736;50.076;8.198;2022-12-18T04:08:15;79.32;;;44.85;;
75156;SDS011;63736;50.076;8.198;2022-12-18T04:10:40;79.00;;;42.87;;
75156;SDS011;63736;50.076;8.198;2022-12-18T04:13:06;86.53;;;46.87;;
75156;SDS011;63736;50.076;8.198;2022-12-18T04:15:32;76.50;;;43.33;;
75156;SDS011;63736;50.076;8.198;2022-12-18T04:18:00;73.32;;;42.83;;
75156;SDS011;63736;50.076;8.198;2022-12-18T04:20:25;72.50;;;41.57;;
75156;SDS011;63736;50.076;8.198;2022-12-18T04:22:50;71.83;;;41.23;;
75156;SDS011;63736;50.076;8.198;2022-12-18T04:25:16;82.85;;;48.13;;
75156;SDS011;63736;50.076;8.198;2022-12-18T04:27:41;72.67;;;41.03;;
75156;SDS011;63736;50.076;8.198;2022-12-18T04:30:06;80.97;;;45.13;;
75156;SDS011;63736;50.076;8.198;2022-12-18T04:32:33;86.53;;;44.93;;
75156;SDS011;63736;50.076;8.198;2022-12-18T04:34:59;85.20;;;46.53;;
75156;SDS011;63736;50.076;8.198;2022-12-18T04:37:24;82.23;;;43.87;;
75156;SDS011;63736;50.076;8.198;2022-12-18T04:39:49;77.83;;;42.67;;
75156;SDS011;63736;50.076;8.198;2022-12-18T04:42:15;85.50;;;45.22;;
75156;SDS011;63736;50.076;8.198;2022-12-18T04:44:40;99.03;;;51.40;;
75156;SDS011;63736;50.076;8.198;2022-12-18T04:47:05;92.23;;;47.20;;
75156;SDS011;63736;50.076;8.198;2022-12-18T04:49:31;99.43;;;49.23;;
75156;SDS011;63736;50.076;8.198;2022-12-18T04:51:56;85.10;;;45.97;;
75156;SDS011;63736;50.076;8.198;2022-12-18T04:54:21;92.60;;;47.87;;
75156;SDS011;63736;50.076;8.198;2022-12-18T04:56:47;90.83;;;48.10;;
75156;SDS011;63736;50.076;8.198;2022-12-18T04:59:12;101.63;;;51.67;;
75156;SDS011;63736;50.076;8.198;2022-12-18T05:01:38;107.67;;;54.07;;
75156;SDS011;63736;50.076;8.198;2022-12-18T05:04:03;102.53;;;51.87;;
75156;SDS011;63736;50.076;8.198;2022-12-18T05:06:29;109.97;;;54.28;;
75156;SDS011;63736;50.076;8.198;2022-12-18T05:08:54;102.83;;;52.03;;
75156;SDS011;63736;50.076;8.198;2022-12-18T05:11:19;107.93;;;53.67;;
75156;SDS011;63736;50.076;8.198;2022-12-18T05:13:45;109.90;;;54.73;;
75156;SDS011;63736;50.076;8.198;2022-12-18T05:16:10;120.73;;;57.73;;
75156;SDS011;63736;50.076;8.198;2022-12-18T05:18:37;106.03;;;53.90;;
75156;SDS011;63736;50.076;8.198;2022-12-18T05:21:03;111.00;;;54.47;;
75156;SDS011;63736;50.076;8.198;2022-12-18T05:23:28;102.90;;;52.60;;
75156;SDS011;63736;50.076;8.198;2022-12-18T05:25:54;91.88;;;49.03;;
75156;SDS011;63736;50.076;8.198;2022-12-18T05:28:22;97.70;;;50.33;;
75156;SDS011;63736;50.076;8.198;2022-12-18T05:30:49;94.93;;;49.63;;
75156;SDS011;63736;50.076;8.198;2022-12-18T05:33:19;102.38;;;52.25;;
75156;SDS011;63736;50.076;8.198;2022-12-18T05:35:52;98.38;;;51.50;;
75156;SDS011;63736;50.076;8.198;2022-12-18T05:38:19;103.82;;;52.50;;
75156;SDS011;63736;50.076;8.198;2022-12-18T05:40:46;114.95;;;54.90;;
75156;SDS011;63736;50.076;8.198;2022-12-18T05:43:12;124.30;;;59.43;;
75156;SDS011;63736;50.076;8.198;2022-12-18T05:45:38;121.60;;;58.83;;
75156;SDS011;63736;50.076;8.198;2022-12-18T05:48:04;119.13;;;58.38;;
75156;SDS011;63736;50.076;8.198;2022-12-18T05:50:30;114.22;;;57.28;;
75156;SDS011;63736;50.076;8.198;2022-12-18T05:52:55;117.50;;;58.70;;
75156;SDS011;63736;50.076;8.198;2022-12-18T05:55:20;128.97;;;62.90;;
75156;SDS011;63736;50.076;8.198;2022-12-18T05:57:45;121.17;;;59.20;;
75156;SDS011;63736;50.076;8.198;2022-12-18T06:00:11;104.07;;;52.17;;
75156;SDS011;63736;50.076;8.198;2022-12-18T06:02:37;89.68;;;47.95;;
75156;SDS011;63736;50.076;8.198;2022-12-18T06:05:02;90.03;;;47.07;;
75156;SDS011;63736;50.076;8.198;2022-12-18T06:07:28;99.47;;;50.85;;
75156;SDS011;63736;50.076;8.198;2022-12-18T06:09:53;107.63;;;53.93;;
75156;SDS011;63736;50.076;8.198;2022-12-18T06:12:18;109.53;;;55.60;;
75156;SDS011;63736;50.076;8.198;2022-12-18T06:14:44;113.43;;;55.60;;
75156;SDS011;63736;50.076;8.198;2022-12-18T06:17:09;108.97;;;54.83;;
75156;SDS011;63736;50.076;8.198;2022-12-18T06:19:34;103.87;;;52.53;;
75156;SDS011;63736;50.076;8.198;2022-12-18T06:21:59;118.73;;;57.63;;
75156;SDS011;63736;50.076;8.198;2022-12-18T06:24:25;121.17;;;58.90;;
75156;SDS011;63736;50.076;8.198;2022-12-18T06:26:50;129.67;;;61.93;;
75156;SDS011;63736;50.076;8.198;2022-12-18T06:29:15;133.27;;;64.93;;
75156;SDS011;63736;50.076;8.198;2022-12-18T06:31:41;127.63;;;61.87;;
75156;SDS011;63736;50.076;8.198;2022-12-18T06:34:06;122.40;;;59.60;;
75156;SDS011;63736;50.076;8.198;2022-12-18T06:36:31;117.83;;;57.80;;
75156;SDS011;63736;50.076;8.198;2022-12-18T06:38:57;119.65;;;58.47;;
75156;SDS011;63736;50.076;8.198;2022-12-18T06:41:22;104.10;;;53.03;;
75156;SDS011;63736;50.076;8.198;2022-12-18T06:47:10;139.43;;;68.90;;
75156;SDS011;63736;50.076;8.198;2022-12-18T06:49:35;128.10;;;63.20;;
75156;SDS011;63736;50.076;8.198;2022-12-18T06:52:01;141.02;;;67.22;;
75156;SDS011;63736;50.076;8.198;2022-12-18T06:54:26;124.13;;;61.50;;
75156;SDS011;63736;50.076;8.198;2022-12-18T06:56:51;132.40;;;64.77;;
75156;SDS011;63736;50.076;8.198;2022-12-18T06:59:16;132.80;;;64.83;;
75156;SDS011;63736;50.076;8.198;2022-12-18T07:01:42;132.37;;;63.80;;
75156;SDS011;63736;50.076;8.198;2022-12-18T07:04:07;128.63;;;63.40;;
75156;SDS011;63736;50.076;8.198;2022-12-18T07:06:32;122.30;;;60.07;;
75156;SDS011;63736;50.076;8.198;2022-12-18T07:08:58;125.83;;;62.63;;
75156;SDS011;63736;50.076;8.198;2022-12-18T07:11:23;123.60;;;59.87;;
75156;SDS011;63736;50.076;8.198;2022-12-18T07:13:49;133.10;;;63.85;;
75156;SDS011;63736;50.076;8.198;2022-12-18T07:16:15;141.40;;;68.20;;
75156;SDS011;63736;50.076;8.198;2022-12-18T07:18:42;148.82;;;72.32;;
75156;SDS011;63736;50.076;8.198;2022-12-18T07:21:09;135.68;;;64.85;;
75156;SDS011;63736;50.076;8.198;2022-12-18T07:23:37;149.57;;;73.80;;
75156;SDS011;63736;50.076;8.198;2022-12-18T07:26:03;150.93;;;73.93;;
75156;SDS011;63736;50.076;8.198;2022-12-18T07:28:31;173.52;;;86.85;;
75156;SDS011;63736;50.076;8.198;2022-12-18T07:30:57;191.48;;;97.20;;
75156;SDS011;63736;50.076;8.198;2022-12-18T07:33:23;152.50;;;76.67;;
75156;SDS011;63736;50.076;8.198;2022-12-18T07:35:49;132.07;;;64.30;;
75156;SDS011;63736;50.076;8.198;2022-12-18T07:38:14;130.67;;;64.90;;
75156;SDS011;63736;50.076;8.198;2022-12-18T07:40:39;97.97;;;51.93;;
75156;SDS011;63736;50.076;8.198;2022-12-18T07:43:05;95.97;;;49.93;;
75156;SDS011;63736;50.076;8.198;2022-12-18T07:45:30;92.77;;;48.30;;
75156;SDS011;63736;50.076;8.198;2022-12-18T07:47:55;98.90;;;50.00;;
75156;SDS011;63736;50.076;8.198;2022-12-18T07:50:21;99.03;;;51.10;;
75156;SDS011;63736;50.076;8.198;2022-12-18T07:52:46;159.30;;;76.35;;
75156;SDS011;63736;50.076;8.198;2022-12-18T07:55:11;136.10;;;63.90;;
75156;SDS011;63736;50.076;8.198;2022-12-18T07:57:36;95.50;;;49.73;;
75156;SDS011;63736;50.076;8.198;2022-12-18T08:00:02;71.13;;;41.17;;
75156;SDS011;63736;50.076;8.198;2022-12-18T08:02:30;68.15;;;41.50;;
75156;SDS011;63736;50.076;8.198;2022-12-18T08:04:55;42.65;;;29.60;;
75156;SDS011;63736;50.076;8.198;2022-12-18T08:07:21;40.63;;;29.13;;
75156;SDS011;63736;50.076;8.198;2022-12-18T08:09:46;35.77;;;28.17;;
75156;SDS011;63736;50.076;8.198;2022-12-18T08:12:11;39.90;;;30.57;;
75156;SDS011;63736;50.076;8.198;2022-12-18T08:14:36;29.73;;;12.10;;
75156;SDS011;63736;50.076;8.198;2022-12-18T08:17:02;48.03;;;24.80;;
75156;SDS011;63736;50.076;8.198;2022-12-18T08:19:27;99.23;;;50.07;;
75156;SDS011;63736;50.076;8.198;2022-12-18T08:21:52;120.63;;;55.23;;
75156;SDS011;63736;50.076;8.198;2022-12-18T08:24:18;167.60;;;70.90;;
75156;SDS011;63736;50.076;8.198;2022-12-18T08:26:43;197.50;;;80.90;;
75156;SDS011;63736;50.076;8.198;2022-12-18T08:29:11;220.43;;;89.65;;
75156;SDS011;63736;50.076;8.198;2022-12-18T08:31:37;228.87;;;90.23;;
75156;SDS011;63736;50.076;8.198;2022-12-18T08:34:02;182.03;;;74.27;;
75156;SDS011;63736;50.076;8.198;2022-12-18T08:36:27;180.80;;;72.50;;
75156;SDS011;63736;50.076;8.198;2022-12-18T08:38:53;182.53;;;73.37;;
75156;SDS011;63736;50.076;8.198;2022-12-18T08:41:19;175.27;;;69.83;;
75156;SDS011;63736;50.076;8.198;2022-12-18T08:47:13;131.27;;;58.25;;
75156;SDS011;63736;50.076;8.198;2022-12-18T08:49:46;139.55;;;60.03;;
75156;SDS011;63736;50.076;8.198;2022-12-18T08:52:15;147.27;;;62.97;;
75156;SDS011;63736;50.076;8.198;2022-12-18T08:55:05;172.20;;;70.57;;
75156;SDS011;63736;50.076;8.198;2022-12-18T08:57:30;155.23;;;65.33;;
75156;SDS011;63736;50.076;8.198;2022-12-18T08:59:56;140.67;;;60.10;;
75156;SDS011;63736;50.076;8.198;2022-12-18T09:02:21;146.93;;;62.53;;
75156;SDS011;63736;50.076;8.198;2022-12-18T09:04:47;135.40;;;58.90;;
75156;SDS011;63736;50.076;8.198;2022-12-18T09:07:17;129.00;;;56.35;;
75156;SDS011;63736;50.076;8.198;2022-12-18T09:09:45;87.93;;;46.77;;
75156;SDS011;63736;50.076;8.198;2022-12-18T09:12:10;80.20;;;44.30;;
75156;SDS011;63736;50.076;8.198;2022-12-18T09:14:35;87.88;;;47.05;;
75156;SDS011;63736;50.076;8.198;2022-12-18T09:17:01;81.57;;;45.33;;
75156;SDS011;63736;50.076;8.198;2022-12-18T09:19:26;93.07;;;48.60;;
75156;SDS011;63736;50.076;8.198;2022-12-18T09:21:51;102.30;;;49.93;;
75156;SDS011;63736;50.076;8.198;2022-12-18T09:24:17;97.40;;;49.97;;
75156;SDS011;63736;50.076;8.198;2022-12-18T09:26:42;80.60;;;45.53;;
75156;SDS011;63736;50.076;8.198;2022-12-18T09:29:08;70.43;;;42.17;;
75156;SDS011;63736;50.076;8.198;2022-12-18T09:31:34;63.70;;;39.93;;
75156;SDS011;63736;50.076;8.198;2022-12-18T09:34:00;55.07;;;36.67;;
75156;SDS011;63736;50.076;8.198;2022-12-18T09:36:25;51.43;;;33.97;;
75156;SDS011;63736;50.076;8.198;2022-12-18T09:38:50;49.93;;;34.60;;
75156;SDS011;63736;50.076;8.198;2022-12-18T09:44:41;57.35;;;38.10;;
75156;SDS011;63736;50.076;8.198;2022-12-18T09:47:19;49.20;;;33.83;;
75156;SDS011;63736;50.076;8.198;2022-12-18T09:49:47;47.78;;;33.20;;
75156;SDS011;63736;50.076;8.198;2022-12-18T09:52:17;54.08;;;33.13;;
75156;SDS011;63736;50.076;8.198;2022-12-18T09:54:53;41.90;;;28.63;;
75156;SDS011;63736;50.076;8.198;2022-12-18T09:57:23;49.70;;;33.28;;
75156;SDS011;63736;50.076;8.198;2022-12-18T09:59:58;48.37;;;32.00;;
75156;SDS011;63736;50.076;8.198;2022-12-18T10:02:31;44.22;;;27.35;;
75156;SDS011;63736;50.076;8.198;2022-12-18T10:05:07;41.72;;;27.55;;
75156;SDS011;63736;50.076;8.198;2022-12-18T10:18:58;114.22;;;55.58;;
75156;SDS011;63736;50.076;8.198;2022-12-18T10:26:55;166.80;;;70.53;;
75156;SDS011;63736;50.076;8.198;2022-12-18T10:29:34;139.90;;;63.00;;
75156;SDS011;63736;50.076;8.198;2022-12-18T10:31:59;129.63;;;58.23;;
75156;SDS011;63736;50.076;8.198;2022-12-18T10:34:24;96.37;;;50.23;;
75156;SDS011;63736;50.076;8.198;2022-12-18T10:36:49;73.73;;;42.43;;
75156;SDS011;63736;50.076;8.198;2022-12-18T10:39:19;61.63;;;38.37;;
75156;SDS011;63736;50.076;8.198;2022-12-18T10:41:48;63.05;;;40.28;;
75156;SDS011;63736;50.076;8.198;2022-12-18T10:44:21;82.63;;;46.57;;
75156;SDS011;63736;50.076;8.198;2022-12-18T10:46:48;74.65;;;43.78;;
75156;SDS011;63736;50.076;8.198;2022-12-18T10:49:22;77.95;;;46.90;;
75156;SDS011;63736;50.076;8.198;2022-12-18T10:51:50;65.43;;;41.00;;
75156;SDS011;63736;50.076;8.198;2022-12-18T10:54:28;79.18;;;45.05;;
75156;SDS011;63736;50.076;8.198;2022-12-18T10:57:13;103.80;;;51.77;;
75156;SDS011;63736;50.076;8.198;2022-12-18T10:59:54;107.28;;;52.95;;
75156;SDS011;63736;50.076;8.198;2022-12-18T11:02:34;108.30;;;52.83;;
75156;SDS011;63736;50.076;8.198;2022-12-18T11:05:02;113.60;;;55.67;;
75156;SDS011;63736;50.076;8.198;2022-12-18T11:07:47;109.70;;;53.63;;
75156;SDS011;63736;50.076;8.198;2022-12-18T11:10:19;113.63;;;53.77;;
75156;SDS011;63736;50.076;8.198;2022-12-18T11:12:46;104.63;;;52.05;;
75156;SDS011;63736;50.076;8.198;2022-12-18T11:15:16;102.80;;;52.00;;
75156;SDS011;63736;50.076;8.198;2022-12-18T11:17:49;99.68;;;50.25;;
75156;SDS011;63736;50.076;8.198;2022-12-18T11:20:34;110.20;;;53.70;;
75156;SDS011;63736;50.076;8.198;2022-12-18T11:23:04;116.80;;;56.63;;
75156;SDS011;63736;50.076;8.198;2022-12-18T11:25:36;113.00;;;55.65;;
75156;SDS011;63736;50.076;8.198;2022-12-18T11:31:18;126.43;;;59.70;;
75156;SDS011;63736;50.076;8.198;2022-12-18T11:33:53;119.70;;;56.50;;
75156;SDS011;63736;50.076;8.198;2022-12-18T11:36:39;127.65;;;58.53;;
75156;SDS011;63736;50.076;8.198;2022-12-18T11:39:17;131.88;;;59.03;;
75156;SDS011;63736;50.076;8.198;2022-12-18T11:44:32;140.60;;;63.90;;
75156;SDS011;63736;50.076;8.198;2022-12-18T11:47:13;132.68;;;60.50;;
75156;SDS011;63736;50.076;8.198;2022-12-18T11:49:47;129.02;;;60.20;;
75156;SDS011;63736;50.076;8.198;2022-12-18T11:52:22;123.10;;;58.42;;
75156;SDS011;63736;50.076;8.198;2022-12-18T11:54:52;130.93;;;58.75;;
75156;SDS011;63736;50.076;8.198;2022-12-18T12:01:04;153.23;;;66.35;;
75156;SDS011;63736;50.076;8.198;2022-12-18T12:06:24;199.65;;;83.40;;
75156;SDS011;63736;50.076;8.198;2022-12-18T12:11:51;164.27;;;69.97;;
75156;SDS011;63736;50.076;8.198;2022-12-18T12:33:44;161.48;;;69.65;;
75156;SDS011;63736;50.076;8.198;2022-12-18T12:36:47;174.23;;;73.50;;
75156;SDS011;63736;50.076;8.198;2022-12-18T12:39:17;201.80;;;82.57;;
75156;SDS011;63736;50.076;8.198;2022-12-18T12:41:45;194.73;;;79.75;;
75156;SDS011;63736;50.076;8.198;2022-12-18T12:44:32;209.68;;;85.60;;
75156;SDS011;63736;50.076;8.198;2022-12-18T12:47:06;195.18;;;80.82;;
75156;SDS011;63736;50.076;8.198;2022-12-18T12:49:40;192.07;;;79.10;;
75156;SDS011;63736;50.076;8.198;2022-12-18T12:52:14;186.07;;;76.33;;
75156;SDS011;63736;50.076;8.198;2022-12-18T12:54:53;191.23;;;78.38;;
75156;SDS011;63736;50.076;8.198;2022-12-18T12:57:34;193.98;;;81.00;;
75156;SDS011;63736;50.076;8.198;2022-12-18T13:00:25;228.70;;;92.10;;
75156;SDS011;63736;50.076;8.198;2022-12-18T13:03:04;227.02;;;91.10;;
75156;SDS011;63736;50.076;8.198;2022-12-18T13:08:58;253.13;;;102.82;;
75156;SDS011;63736;50.076;8.198;2022-12-18T13:14:47;243.55;;;98.13;;
75156;SDS011;63736;50.076;8.198;2022-12-18T13:19:44;238.55;;;97.45;;
75156;SDS011;63736;50.076;8.198;2022-12-18T13:22:20;237.43;;;96.47;;
75156;SDS011;63736;50.076;8.198;2022-12-18T13:24:53;243.25;;;99.85;;
75156;SDS011;63736;50.076;8.198;2022-12-18T13:43:54;159.90;;;68.07;;
75156;SDS011;63736;50.076;8.198;2022-12-18T13:46:44;153.10;;;66.37;;
75156;SDS011;63736;50.076;8.198;2022-12-18T13:51:49;118.55;;;53.95;;
75156;SDS011;63736;50.076;8.198;2022-12-18T13:57:41;113.82;;;52.85;;
75156;SDS011;63736;50.076;8.198;2022-12-18T14:02:47;92.18;;;47.80;;
75156;SDS011;63736;50.076;8.198;2022-12-18T14:07:48;93.78;;;47.25;;
75156;SDS011;63736;50.076;8.198;2022-12-18T14:10:14;72.67;;;40.33;;
75156;SDS011;63736;50.076;8.198;2022-12-18T14:12:44;72.30;;;41.67;;
75156;SDS011;63736;50.076;8.198;2022-12-18T14:18:01;55.47;;;34.17;;
75156;SDS011;63736;50.076;8.198;2022-12-18T14:20:39;61.30;;;36.95;;
75156;SDS011;63736;50.076;8.198;2022-12-18T14:23:24;92.65;;;48.30;;
75156;SDS011;63736;50.076;8.198;2022-12-18T14:25:53;96.38;;;49.22;;
75156;SDS011;63736;50.076;8.198;2022-12-18T14:28:18;92.17;;;47.77;;
75156;SDS011;63736;50.076;8.198;2022-12-18T14:30:45;68.23;;;41.00;;
75156;SDS011;63736;50.076;8.198;2022-12-18T14:33:12;70.38;;;40.85;;
75156;SDS011;63736;50.076;8.198;2022-12-18T14:35:43;71.60;;;40.47;;
75156;SDS011;63736;50.076;8.198;2022-12-18T14:38:31;67.30;;;39.90;;
75156;SDS011;63736;50.076;8.198;2022-12-18T14:40:59;71.15;;;40.20;;
75156;SDS011;63736;50.076;8.198;2022-12-18T14:43:26;86.10;;;42.55;;
75156;SDS011;63736;50.076;8.198;2022-12-18T14:45:52;83.15;;;43.50;;
75156;SDS011;63736;50.076;8.198;2022-12-18T14:48:19;79.73;;;43.23;;
75156;SDS011;63736;50.076;8.198;2022-12-18T14:51:03;83.05;;;45.70;;
75156;SDS011;63736;50.076;8.198;2022-12-18T14:56:03;88.30;;;45.92;;
75156;SDS011;63736;50.076;8.198;2022-12-18T14:58:38;104.10;;;51.33;;
75156;SDS011;63736;50.076;8.198;2022-12-18T15:01:04;121.17;;;53.73;;
75156;SDS011;63736;50.076;8.198;2022-12-18T15:03:30;89.57;;;47.00;;
75156;SDS011;63736;50.076;8.198;2022-12-18T15:06:14;69.95;;;40.40;;
75156;SDS011;63736;50.076;8.198;2022-12-18T15:09:20;56.53;;;31.20;;
75156;SDS011;63736;50.076;8.198;2022-12-18T15:11:55;60.50;;;32.08;;
75156;SDS011;63736;50.076;8.198;2022-12-18T15:17:06;51.33;;;27.00;;
75156;SDS011;63736;50.076;8.198;2022-12-18T15:19:50;36.40;;;14.20;;
75156;SDS011;63736;50.076;8.198;2022-12-18T15:24:56;45.63;;;14.15;;
75156;SDS011;63736;50.076;8.198;2022-12-18T15:32:39;45.30;;;15.00;;
75156;SDS011;63736;50.076;8.198;2022-12-18T15:37:37;47.20;;;17.02;;
75156;SDS011;63736;50.076;8.198;2022-12-18T15:40:04;39.33;;;15.85;;
75156;SDS011;63736;50.076;8.198;2022-12-18T15:42:30;45.72;;;17.70;;
75156;SDS011;63736;50.076;8.198;2022-12-18T15:45:17;36.77;;;13.53;;
75156;SDS011;63736;50.076;8.198;2022-12-18T15:47:51;45.00;;;15.45;;
75156;SDS011;63736;50.076;8.198;2022-12-18T15:50:17;43.15;;;15.63;;
75156;SDS011;63736;50.076;8.198;2022-12-18T15:52:46;38.17;;;14.67;;
75156;SDS011;63736;50.076;8.198;2022-12-18T15:55:20;45.38;;;14.57;;
75156;SDS011;63736;50.076;8.198;2022-12-18T15:58:06;38.97;;;15.15;;
75156;SDS011;63736;50.076;8.198;2022-12-18T16:00:32;37.08;;;13.82;;
75156;SDS011;63736;50.076;8.198;2022-12-18T16:02:59;51.17;;;18.97;;
75156;SDS011;63736;50.076;8.198;2022-12-18T16:05:25;42.60;;;15.60;;
75156;SDS011;63736;50.076;8.198;2022-12-18T16:07:52;35.53;;;13.17;;
75156;SDS011;63736;50.076;8.198;2022-12-18T16:10:18;38.28;;;12.75;;
75156;SDS011;63736;50.076;8.198;2022-12-18T16:12:44;34.22;;;12.35;;
75156;SDS011;63736;50.076;8.198;2022-12-18T16:15:11;35.03;;;12.70;;
75156;SDS011;63736;50.076;8.198;2022-12-18T16:17:38;37.65;;;11.85;;
75156;SDS011;63736;50.076;8.198;2022-12-18T16:20:05;39.95;;;13.60;;
75156;SDS011;63736;50.076;8.198;2022-12-18T16:22:31;30.02;;;10.98;;
75156;SDS011;63736;50.076;8.198;2022-12-18T16:24:57;33.03;;;11.23;;
75156;SDS011;63736;50.076;8.198;2022-12-18T16:27:22;39.10;;;12.37;;
75156;SDS011;63736;50.076;8.198;2022-12-18T16:29:49;40.27;;;13.23;;
75156;SDS011;63736;50.076;8.198;2022-12-18T16:32:15;38.60;;;13.50;;
75156;SDS011;63736;50.076;8.198;2022-12-18T16:34:43;27.03;;;9.73;;
75156;SDS011;63736;50.076;8.198;2022-12-18T16:37:10;31.38;;;13.10;;
75156;SDS011;63736;50.076;8.198;2022-12-18T16:39:37;40.53;;;19.15;;
75156;SDS011;63736;50.076;8.198;2022-12-18T16:42:09;31.02;;;15.10;;
75156;SDS011;63736;50.076;8.198;2022-12-18T16:44:40;56.22;;;33.65;;
75156;SDS011;63736;50.076;8.198;2022-12-18T16:47:06;90.17;;;44.37;;
75156;SDS011;63736;50.076;8.198;2022-12-18T16:49:31;67.63;;;38.35;;
75156;SDS011;63736;50.076;8.198;2022-12-18T16:51:57;58.27;;;34.67;;
75156;SDS011;63736;50.076;8.198;2022-12-18T16:54:26;57.75;;;34.50;;
75156;SDS011;63736;50.076;8.198;2022-12-18T16:56:58;52.30;;;31.53;;
75156;SDS011;63736;50.076;8.198;2022-12-18T16:59:25;50.47;;;30.02;;
75156;SDS011;63736;50.076;8.198;2022-12-18T17:01:54;34.72;;;15.00;;
75156;SDS011;63736;50.076;8.198;2022-12-18T17:04:21;27.45;;;12.43;;
75156;SDS011;63736;50.076;8.198;2022-12-18T17:06:46;32.10;;;15.47;;